sensor_id;sensor_type;location;lat;lon;timestamp;pressure;altitude;pressure_sealevel;temperature
20848;BMP180;10584;50.854;12.902;2023-06-19T00:02:51;97944.00;;;14.90
20848;BMP180;10584;50.854;12.902;2023-06-19T00:08:13;97937.00;;;14.90
20848;BMP180;10584;50.854;12.902;2023-06-19T00:13:34;97927.00;;;14.90
20848;BMP180;10584;50.854;12.902;2023-06-19T00:18:56;97924.00;;;14.90
20848;BMP180;10584;50.854;12.902;2023-06-19T00:24:17;97914.00;;;15.00
20848;BMP180;10584;50.854;12.902;2023-06-19T00:29:39;97910.00;;;15.00
20848;BMP180;10584;50.854;12.902;2023-06-19T00:35:00;97898.00;;;15.00
20848;BMP180;10584;50.854;12.902;2023-06-19T00:40:31;97902.00;;;15.10
20848;BMP180;10584;50.854;12.902;2023-06-19T00:45:53;97901.00;;;15.00
20848;BMP180;10584;50.854;12.902;2023-06-19T00:51:15;97891.00;;;15.10
20848;BMP180;10584;50.854;12.902;2023-06-19T00:56:38;97888.00;;;15.00
20848;BMP180;10584;50.854;12.902;2023-06-19T01:02:02;97889.00;;;15.00
20848;BMP180;10584;50.854;12.902;2023-06-19T01:07:58;97884.00;;;15.00
20848;BMP180;10584;50.854;12.902;2023-06-19T01:13:41;97878.00;;;14.90
20848;BMP180;10584;50.854;12.902;2023-06-19T01:19:06;97874.00;;;14.90
20848;BMP180;10584;50.854;12.902;2023-06-19T01:24:30;97871.00;;;14.90
20848;BMP180;10584;50.854;12.902;2023-06-19T01:29:55;97861.00;;;14.90
20848;BMP180;10584;50.854;12.902;2023-06-19T01:35:21;97869.00;;;14.90
20848;BMP180;10584;50.854;12.902;2023-06-19T01:40:45;97865.00;;;14.90
20848;BMP180;10584;50.854;12.902;2023-06-19T01:46:07;97853.00;;;14.90
20848;BMP180;10584;50.854;12.902;2023-06-19T01:51:28;97857.00;;;14.90
20848;BMP180;10584;50.854;12.902;2023-06-19T01:56:50;97843.00;;;14.90
20848;BMP180;10584;50.854;12.902;2023-06-19T02:02:12;97844.00;;;14.90
20848;BMP180;10584;50.854;12.902;2023-06-19T02:07:33;97844.00;;;14.90
20848;BMP180;10584;50.854;12.902;2023-06-19T02:12:55;97843.00;;;14.90
20848;BMP180;10584;50.854;12.902;2023-06-19T02:18:19;97840.00;;;15.00
20848;BMP180;10584;50.854;12.902;2023-06-19T02:23:40;97841.00;;;15.00
20848;BMP180;10584;50.854;12.902;2023-06-19T02:29:02;97832.00;;;15.00
20848;BMP180;10584;50.854;12.902;2023-06-19T02:34:23;97832.00;;;15.00
20848;BMP180;10584;50.854;12.902;2023-06-19T02:39:45;97829.00;;;15.00
20848;BMP180;10584;50.854;12.902;2023-06-19T02:45:08;97822.00;;;15.00
20848;BMP180;10584;50.854;12.902;2023-06-19T02:50:30;97825.00;;;15.00
20848;BMP180;10584;50.854;12.902;2023-06-19T02:55:52;97828.00;;;15.00
20848;BMP180;10584;50.854;12.902;2023-06-19T03:01:13;97826.00;;;15.00
20848;BMP180;10584;50.854;12.902;2023-06-19T03:06:37;97824.00;;;15.00
20848;BMP180;10584;50.854;12.902;2023-06-19T03:12:01;97826.00;;;15.00
20848;BMP180;10584;50.854;12.902;2023-06-19T03:17:23;97818.00;;;15.10
20848;BMP180;10584;50.854;12.902;2023-06-19T03:22:44;97817.00;;;15.00
20848;BMP180;10584;50.854;12.902;2023-06-19T03:28:08;97817.00;;;15.10
20848;BMP180;10584;50.854;12.902;2023-06-19T03:33:31;97822.00;;;15.10
20848;BMP180;10584;50.854;12.902;2023-06-19T03:38:52;97816.00;;;15.20
20848;BMP180;10584;50.854;12.902;2023-06-19T03:44:19;97821.00;;;15.40
20848;BMP180;10584;50.854;12.902;2023-06-19T03:49:41;97823.00;;;15.50
20848;BMP180;10584;50.854;12.902;2023-06-19T03:55:03;97825.00;;;15.70
20848;BMP180;10584;50.854;12.902;2023-06-19T04:00:24;97823.00;;;15.90
20848;BMP180;10584;50.854;12.902;2023-06-19T04:05:46;97832.00;;;16.10
20848;BMP180;10584;50.854;12.902;2023-06-19T04:11:08;97828.00;;;16.20
20848;BMP180;10584;50.854;12.902;2023-06-19T04:16:29;97826.00;;;16.40
20848;BMP180;10584;50.854;12.902;2023-06-19T04:21:51;97836.00;;;16.60
20848;BMP180;10584;50.854;12.902;2023-06-19T04:27:12;97836.00;;;16.80
20848;BMP180;10584;50.854;12.902;2023-06-19T04:32:34;97841.00;;;17.00
20848;BMP180;10584;50.854;12.902;2023-06-19T04:37:56;97846.00;;;17.20
20848;BMP180;10584;50.854;12.902;2023-06-19T04:43:22;97849.00;;;17.30
20848;BMP180;10584;50.854;12.902;2023-06-19T04:48:46;97855.00;;;17.50
20848;BMP180;10584;50.854;12.902;2023-06-19T04:54:12;97854.00;;;17.60
20848;BMP180;10584;50.854;12.902;2023-06-19T04:59:33;97849.00;;;17.80
20848;BMP180;10584;50.854;12.902;2023-06-19T05:04:54;97850.00;;;17.90
20848;BMP180;10584;50.854;12.902;2023-06-19T05:10:16;97854.00;;;18.10
20848;BMP180;10584;50.854;12.902;2023-06-19T05:15:38;97859.00;;;18.30
20848;BMP180;10584;50.854;12.902;2023-06-19T05:20:59;97861.00;;;18.50
20848;BMP180;10584;50.854;12.902;2023-06-19T05:26:23;97869.00;;;18.70
20848;BMP180;10584;50.854;12.902;2023-06-19T05:31:44;97872.00;;;18.90
20848;BMP180;10584;50.854;12.902;2023-06-19T05:37:06;97871.00;;;19.10
20848;BMP180;10584;50.854;12.902;2023-06-19T05:42:27;97878.00;;;19.30
20848;BMP180;10584;50.854;12.902;2023-06-19T05:47:48;97887.00;;;19.40
20848;BMP180;10584;50.854;12.902;2023-06-19T05:53:10;97885.00;;;19.60
20848;BMP180;10584;50.854;12.902;2023-06-19T05:58:35;97892.00;;;19.70
20848;BMP180;10584;50.854;12.902;2023-06-19T06:03:57;97897.00;;;19.80
20848;BMP180;10584;50.854;12.902;2023-06-19T06:09:19;97904.00;;;20.00
20848;BMP180;10584;50.854;12.902;2023-06-19T06:14:41;97908.00;;;20.10
20848;BMP180;10584;50.854;12.902;2023-06-19T06:20:03;97902.00;;;20.30
20848;BMP180;10584;50.854;12.902;2023-06-19T06:25:33;97909.00;;;20.40
20848;BMP180;10584;50.854;12.902;2023-06-19T06:30:55;97919.00;;;20.60
20848;BMP180;10584;50.854;12.902;2023-06-19T06:36:17;97914.00;;;20.70
20848;BMP180;10584;50.854;12.902;2023-06-19T06:41:55;97909.00;;;20.80
20848;BMP180;10584;50.854;12.902;2023-06-19T06:47:16;97909.00;;;21.00
20848;BMP180;10584;50.854;12.902;2023-06-19T06:52:38;97905.00;;;21.20
20848;BMP180;10584;50.854;12.902;2023-06-19T06:58:00;97902.00;;;21.30
20848;BMP180;10584;50.854;12.902;2023-06-19T07:03:22;97901.00;;;21.40
20848;BMP180;10584;50.854;12.902;2023-06-19T07:08:44;97904.00;;;21.50
20848;BMP180;10584;50.854;12.902;2023-06-19T07:14:08;97918.00;;;21.50
20848;BMP180;10584;50.854;12.902;2023-06-19T07:19:30;97922.00;;;21.60
20848;BMP180;10584;50.854;12.902;2023-06-19T07:24:51;97918.00;;;21.60
20848;BMP180;10584;50.854;12.902;2023-06-19T07:30:13;97915.00;;;21.60
20848;BMP180;10584;50.854;12.902;2023-06-19T07:35:37;97933.00;;;21.50
20848;BMP180;10584;50.854;12.902;2023-06-19T07:40:58;97941.00;;;21.60
20848;BMP180;10584;50.854;12.902;2023-06-19T07:46:19;97946.00;;;21.60
20848;BMP180;10584;50.854;12.902;2023-06-19T07:51:41;97940.00;;;21.60
20848;BMP180;10584;50.854;12.902;2023-06-19T07:57:03;97952.00;;;21.70
20848;BMP180;10584;50.854;12.902;2023-06-19T08:02:26;97946.00;;;21.70
20848;BMP180;10584;50.854;12.902;2023-06-19T08:07:48;97953.00;;;21.60
20848;BMP180;10584;50.854;12.902;2023-06-19T08:13:10;97941.00;;;21.60
20848;BMP180;10584;50.854;12.902;2023-06-19T08:18:32;97940.00;;;21.60
20848;BMP180;10584;50.854;12.902;2023-06-19T08:23:54;97946.00;;;21.70
20848;BMP180;10584;50.854;12.902;2023-06-19T08:29:15;97947.00;;;21.70
20848;BMP180;10584;50.854;12.902;2023-06-19T08:34:37;97945.00;;;21.80
20848;BMP180;10584;50.854;12.902;2023-06-19T08:39:59;97935.00;;;22.00
20848;BMP180;10584;50.854;12.902;2023-06-19T08:45:21;97927.00;;;22.30
20848;BMP180;10584;50.854;12.902;2023-06-19T08:50:42;97934.00;;;22.80
20848;BMP180;10584;50.854;12.902;2023-06-19T08:56:04;97946.00;;;23.10
20848;BMP180;10584;50.854;12.902;2023-06-19T09:01:26;97955.00;;;23.40
20848;BMP180;10584;50.854;12.902;2023-06-19T09:06:56;97958.00;;;23.50
20848;BMP180;10584;50.854;12.902;2023-06-19T09:12:18;97959.00;;;23.70
20848;BMP180;10584;50.854;12.902;2023-06-19T09:18:05;97958.00;;;23.90
20848;BMP180;10584;50.854;12.902;2023-06-19T09:23:27;97953.00;;;24.10
20848;BMP180;10584;50.854;12.902;2023-06-19T09:28:52;97945.00;;;24.50
20848;BMP180;10584;50.854;12.902;2023-06-19T09:34:14;97942.00;;;25.00
20848;BMP180;10584;50.854;12.902;2023-06-19T09:39:39;97936.00;;;25.30
20848;BMP180;10584;50.854;12.902;2023-06-19T09:45:05;97932.00;;;25.60
20848;BMP180;10584;50.854;12.902;2023-06-19T09:50:29;97934.00;;;26.00
20848;BMP180;10584;50.854;12.902;2023-06-19T09:55:51;97933.00;;;26.40
20848;BMP180;10584;50.854;12.902;2023-06-19T10:01:14;97928.00;;;26.80
20848;BMP180;10584;50.854;12.902;2023-06-19T10:06:46;97929.00;;;26.90
20848;BMP180;10584;50.854;12.902;2023-06-19T10:12:12;97926.00;;;27.10
20848;BMP180;10584;50.854;12.902;2023-06-19T10:17:34;97925.00;;;27.30
20848;BMP180;10584;50.854;12.902;2023-06-19T10:23:12;97923.00;;;27.70
20848;BMP180;10584;50.854;12.902;2023-06-19T10:28:39;97913.00;;;27.90
20848;BMP180;10584;50.854;12.902;2023-06-19T10:34:03;97916.00;;;28.00
20848;BMP180;10584;50.854;12.902;2023-06-19T10:39:25;97913.00;;;28.30
20848;BMP180;10584;50.854;12.902;2023-06-19T10:44:46;97925.00;;;28.60
20848;BMP180;10584;50.854;12.902;2023-06-19T10:50:15;97907.00;;;28.70
20848;BMP180;10584;50.854;12.902;2023-06-19T10:55:36;97913.00;;;28.90
20848;BMP180;10584;50.854;12.902;2023-06-19T11:00:58;97914.00;;;29.10
20848;BMP180;10584;50.854;12.902;2023-06-19T11:06:20;97917.00;;;29.20
20848;BMP180;10584;50.854;12.902;2023-06-19T11:17:08;97912.00;;;29.30
20848;BMP180;10584;50.854;12.902;2023-06-19T11:22:40;97911.00;;;29.50
20848;BMP180;10584;50.854;12.902;2023-06-19T11:28:02;97903.00;;;29.60
20848;BMP180;10584;50.854;12.902;2023-06-19T11:33:23;97915.00;;;29.70
20848;BMP180;10584;50.854;12.902;2023-06-19T11:38:45;97919.00;;;29.70
20848;BMP180;10584;50.854;12.902;2023-06-19T11:44:10;97928.00;;;29.50
20848;BMP180;10584;50.854;12.902;2023-06-19T11:49:35;97918.00;;;28.90
20848;BMP180;10584;50.854;12.902;2023-06-19T11:54:57;97914.00;;;28.70
20848;BMP180;10584;50.854;12.902;2023-06-19T12:00:18;97908.00;;;28.40
20848;BMP180;10584;50.854;12.902;2023-06-19T12:05:40;97910.00;;;28.30
20848;BMP180;10584;50.854;12.902;2023-06-19T12:11:01;97920.00;;;28.30
20848;BMP180;10584;50.854;12.902;2023-06-19T12:16:23;97928.00;;;27.90
20848;BMP180;10584;50.854;12.902;2023-06-19T12:21:45;97914.00;;;28.00
20848;BMP180;10584;50.854;12.902;2023-06-19T12:27:06;97921.00;;;28.20
20848;BMP180;10584;50.854;12.902;2023-06-19T12:32:28;97925.00;;;27.90
20848;BMP180;10584;50.854;12.902;2023-06-19T12:37:49;97928.00;;;28.50
20848;BMP180;10584;50.854;12.902;2023-06-19T12:43:11;97937.00;;;28.40
20848;BMP180;10584;50.854;12.902;2023-06-19T12:48:33;97939.00;;;28.80
20848;BMP180;10584;50.854;12.902;2023-06-19T12:53:55;97923.00;;;28.90
20848;BMP180;10584;50.854;12.902;2023-06-19T12:59:17;97928.00;;;29.10
20848;BMP180;10584;50.854;12.902;2023-06-19T13:04:38;97924.00;;;29.40
20848;BMP180;10584;50.854;12.902;2023-06-19T13:10:00;97917.00;;;29.40
20848;BMP180;10584;50.854;12.902;2023-06-19T13:15:21;97922.00;;;29.30
20848;BMP180;10584;50.854;12.902;2023-06-19T13:20:43;97918.00;;;29.50
20848;BMP180;10584;50.854;12.902;2023-06-19T13:26:06;97918.00;;;29.50
20848;BMP180;10584;50.854;12.902;2023-06-19T13:31:28;97920.00;;;29.40
20848;BMP180;10584;50.854;12.902;2023-06-19T13:36:50;97915.00;;;29.60
20848;BMP180;10584;50.854;12.902;2023-06-19T13:42:11;97904.00;;;29.20
20848;BMP180;10584;50.854;12.902;2023-06-19T13:47:33;97899.00;;;29.30
20848;BMP180;10584;50.854;12.902;2023-06-19T13:52:54;97906.00;;;29.50
20848;BMP180;10584;50.854;12.902;2023-06-19T13:58:16;97902.00;;;29.70
20848;BMP180;10584;50.854;12.902;2023-06-19T14:03:39;97900.00;;;29.90
20848;BMP180;10584;50.854;12.902;2023-06-19T14:09:02;97900.00;;;29.80
20848;BMP180;10584;50.854;12.902;2023-06-19T14:14:23;97900.00;;;29.90
20848;BMP180;10584;50.854;12.902;2023-06-19T14:19:45;97906.00;;;29.50
20848;BMP180;10584;50.854;12.902;2023-06-19T14:25:07;97899.00;;;29.40
20848;BMP180;10584;50.854;12.902;2023-06-19T14:30:28;97899.00;;;29.50
20848;BMP180;10584;50.854;12.902;2023-06-19T14:35:50;97906.00;;;29.40
20848;BMP180;10584;50.854;12.902;2023-06-19T14:41:13;97901.00;;;29.50
20848;BMP180;10584;50.854;12.902;2023-06-19T14:46:36;97904.00;;;29.70
20848;BMP180;10584;50.854;12.902;2023-06-19T14:52:00;97911.00;;;29.90
20848;BMP180;10584;50.854;12.902;2023-06-19T14:57:24;97897.00;;;30.00
20848;BMP180;10584;50.854;12.902;2023-06-19T15:02:47;97893.00;;;30.20
20848;BMP180;10584;50.854;12.902;2023-06-19T15:08:08;97890.00;;;30.20
20848;BMP180;10584;50.854;12.902;2023-06-19T15:13:32;97879.00;;;30.20
20848;BMP180;10584;50.854;12.902;2023-06-19T15:18:54;97879.00;;;30.40
20848;BMP180;10584;50.854;12.902;2023-06-19T15:24:16;97871.00;;;30.10
20848;BMP180;10584;50.854;12.902;2023-06-19T15:29:37;97891.00;;;30.20
20848;BMP180;10584;50.854;12.902;2023-06-19T15:35:00;97881.00;;;30.50
20848;BMP180;10584;50.854;12.902;2023-06-19T15:40:21;97884.00;;;30.50
20848;BMP180;10584;50.854;12.902;2023-06-19T15:45:44;97889.00;;;30.50
20848;BMP180;10584;50.854;12.902;2023-06-19T15:51:06;97878.00;;;30.30
20848;BMP180;10584;50.854;12.902;2023-06-19T15:56:27;97871.00;;;30.30
20848;BMP180;10584;50.854;12.902;2023-06-19T16:01:49;97865.00;;;30.30
20848;BMP180;10584;50.854;12.902;2023-06-19T16:07:11;97870.00;;;30.10
20848;BMP180;10584;50.854;12.902;2023-06-19T16:12:32;97868.00;;;30.00
20848;BMP180;10584;50.854;12.902;2023-06-19T16:17:54;97873.00;;;29.80
20848;BMP180;10584;50.854;12.902;2023-06-19T16:23:16;97876.00;;;29.80
20848;BMP180;10584;50.854;12.902;2023-06-19T16:28:38;97879.00;;;29.80
20848;BMP180;10584;50.854;12.902;2023-06-19T16:34:00;97874.00;;;29.70
20848;BMP180;10584;50.854;12.902;2023-06-19T16:39:22;97872.00;;;29.60
20848;BMP180;10584;50.854;12.902;2023-06-19T16:44:43;97877.00;;;29.30
20848;BMP180;10584;50.854;12.902;2023-06-19T16:50:05;97868.00;;;29.10
20848;BMP180;10584;50.854;12.902;2023-06-19T16:55:26;97866.00;;;29.00
20848;BMP180;10584;50.854;12.902;2023-06-19T17:00:50;97869.00;;;28.80
20848;BMP180;10584;50.854;12.902;2023-06-19T17:06:12;97863.00;;;28.70
20848;BMP180;10584;50.854;12.902;2023-06-19T17:11:34;97863.00;;;28.50
20848;BMP180;10584;50.854;12.902;2023-06-19T17:16:55;97863.00;;;28.30
20848;BMP180;10584;50.854;12.902;2023-06-19T17:22:17;97851.00;;;28.20
20848;BMP180;10584;50.854;12.902;2023-06-19T17:27:39;97861.00;;;28.10
20848;BMP180;10584;50.854;12.902;2023-06-19T17:33:00;97868.00;;;28.00
20848;BMP180;10584;50.854;12.902;2023-06-19T17:38:23;97868.00;;;28.00
20848;BMP180;10584;50.854;12.902;2023-06-19T17:43:48;97858.00;;;27.90
20848;BMP180;10584;50.854;12.902;2023-06-19T17:49:09;97871.00;;;27.80
20848;BMP180;10584;50.854;12.902;2023-06-19T17:54:31;97875.00;;;27.60
20848;BMP180;10584;50.854;12.902;2023-06-19T17:59:53;97881.00;;;27.50
20848;BMP180;10584;50.854;12.902;2023-06-19T18:05:15;97886.00;;;27.20
20848;BMP180;10584;50.854;12.902;2023-06-19T18:10:38;97887.00;;;27.00
20848;BMP180;10584;50.854;12.902;2023-06-19T18:16:00;97886.00;;;26.90
20848;BMP180;10584;50.854;12.902;2023-06-19T18:21:24;97885.00;;;26.60
20848;BMP180;10584;50.854;12.902;2023-06-19T18:26:45;97889.00;;;26.40
20848;BMP180;10584;50.854;12.902;2023-06-19T18:32:07;97899.00;;;26.30
20848;BMP180;10584;50.854;12.902;2023-06-19T18:37:29;97904.00;;;26.00
20848;BMP180;10584;50.854;12.902;2023-06-19T18:42:50;97897.00;;;25.80
20848;BMP180;10584;50.854;12.902;2023-06-19T18:48:12;97898.00;;;25.60
20848;BMP180;10584;50.854;12.902;2023-06-19T18:53:33;97898.00;;;25.40
20848;BMP180;10584;50.854;12.902;2023-06-19T18:58:55;97900.00;;;25.20
20848;BMP180;10584;50.854;12.902;2023-06-19T19:04:16;97905.00;;;25.00
20848;BMP180;10584;50.854;12.902;2023-06-19T19:09:38;97902.00;;;24.90
20848;BMP180;10584;50.854;12.902;2023-06-19T19:14:59;97907.00;;;24.70
20848;BMP180;10584;50.854;12.902;2023-06-19T19:20:21;97907.00;;;24.50
20848;BMP180;10584;50.854;12.902;2023-06-19T19:25:42;97910.00;;;24.30
20848;BMP180;10584;50.854;12.902;2023-06-19T19:31:04;97916.00;;;24.20
20848;BMP180;10584;50.854;12.902;2023-06-19T19:36:26;97921.00;;;24.00
20848;BMP180;10584;50.854;12.902;2023-06-19T19:41:47;97925.00;;;23.80
20848;BMP180;10584;50.854;12.902;2023-06-19T19:47:09;97927.00;;;23.60
20848;BMP180;10584;50.854;12.902;2023-06-19T19:52:30;97930.00;;;23.50
20848;BMP180;10584;50.854;12.902;2023-06-19T19:57:52;97923.00;;;23.30
20848;BMP180;10584;50.854;12.902;2023-06-19T20:03:14;97933.00;;;23.20
20848;BMP180;10584;50.854;12.902;2023-06-19T20:08:35;97933.00;;;23.00
20848;BMP180;10584;50.854;12.902;2023-06-19T20:13:57;97941.00;;;22.90
20848;BMP180;10584;50.854;12.902;2023-06-19T20:19:18;97943.00;;;22.70
20848;BMP180;10584;50.854;12.902;2023-06-19T20:24:40;97947.00;;;22.50
20848;BMP180;10584;50.854;12.902;2023-06-19T20:30:01;97944.00;;;22.40
20848;BMP180;10584;50.854;12.902;2023-06-19T20:35:23;97949.00;;;22.30
20848;BMP180;10584;50.854;12.902;2023-06-19T20:40:44;97951.00;;;22.20
20848;BMP180;10584;50.854;12.902;2023-06-19T20:46:06;97944.00;;;22.00
20848;BMP180;10584;50.854;12.902;2023-06-19T20:51:28;97947.00;;;21.90
20848;BMP180;10584;50.854;12.902;2023-06-19T20:56:50;97953.00;;;21.70
20848;BMP180;10584;50.854;12.902;2023-06-19T21:02:12;97952.00;;;21.60
20848;BMP180;10584;50.854;12.902;2023-06-19T21:07:35;97953.00;;;21.40
20848;BMP180;10584;50.854;12.902;2023-06-19T21:12:56;97950.00;;;21.30
20848;BMP180;10584;50.854;12.902;2023-06-19T21:18:38;97952.00;;;21.20
20848;BMP180;10584;50.854;12.902;2023-06-19T21:23:59;97951.00;;;21.10
20848;BMP180;10584;50.854;12.902;2023-06-19T21:29:21;97956.00;;;20.90
20848;BMP180;10584;50.854;12.902;2023-06-19T21:34:45;97955.00;;;20.80
20848;BMP180;10584;50.854;12.902;2023-06-19T21:40:07;97961.00;;;20.60
20848;BMP180;10584;50.854;12.902;2023-06-19T21:45:29;97960.00;;;20.50
20848;BMP180;10584;50.854;12.902;2023-06-19T21:50:51;97953.00;;;20.40
20848;BMP180;10584;50.854;12.902;2023-06-19T21:56:12;97962.00;;;20.30
20848;BMP180;10584;50.854;12.902;2023-06-19T22:01:34;97964.00;;;20.20
20848;BMP180;10584;50.854;12.902;2023-06-19T22:06:56;97960.00;;;20.10
20848;BMP180;10584;50.854;12.902;2023-06-19T22:12:17;97960.00;;;20.00
20848;BMP180;10584;50.854;12.902;2023-06-19T22:17:39;97952.00;;;19.90
20848;BMP180;10584;50.854;12.902;2023-06-19T22:23:06;97953.00;;;19.80
20848;BMP180;10584;50.854;12.902;2023-06-19T22:28:27;97964.00;;;19.70
20848;BMP180;10584;50.854;12.902;2023-06-19T22:33:49;97965.00;;;19.60
20848;BMP180;10584;50.854;12.902;2023-06-19T22:39:10;97964.00;;;19.50
20848;BMP180;10584;50.854;12.902;2023-06-19T22:44:32;97973.00;;;19.50
20848;BMP180;10584;50.854;12.902;2023-06-19T22:49:53;97971.00;;;19.40
20848;BMP180;10584;50.854;12.902;2023-06-19T22:55:15;97969.00;;;19.30
20848;BMP180;10584;50.854;12.902;2023-06-19T23:00:37;97968.00;;;19.20
20848;BMP180;10584;50.854;12.902;2023-06-19T23:05:59;97969.00;;;19.20
20848;BMP180;10584;50.854;12.902;2023-06-19T23:11:20;97973.00;;;19.10
20848;BMP180;10584;50.854;12.902;2023-06-19T23:16:42;97971.00;;;19.00
20848;BMP180;10584;50.854;12.902;2023-06-19T23:22:03;97971.00;;;18.90
20848;BMP180;10584;50.854;12.902;2023-06-19T23:27:25;97975.00;;;18.90
20848;BMP180;10584;50.854;12.902;2023-06-19T23:32:46;97976.00;;;18.80
20848;BMP180;10584;50.854;12.902;2023-06-19T23:38:07;97980.00;;;18.80
20848;BMP180;10584;50.854;12.902;2023-06-19T23:43:29;97989.00;;;18.70
20848;BMP180;10584;50.854;12.902;2023-06-19T23:48:50;97991.00;;;18.40
20848;BMP180;10584;50.854;12.902;2023-06-19T23:54:12;97984.00;;;18.40
20848;BMP180;10584;50.854;12.902;2023-06-19T23:59:34;97970.00;;;18.40
